Time;durP1;ratioP1;P1;durP2;ratioP2;P2;SDS_P1;SDS_P2;PMS_P1;PMS_P2;Temp;Humidity;BMP_temperature;BMP_pressure;BME280_temperature;BME280_humidity;BME280_pressure;Samples;Min_cycle;Max_cycle;Signal;HPM_P1;HPM_P2
2024/03/05 00:00:12;;;;;;;18.65;3.35;;;;;;;5.00;100.00;99184.72;4953075;28;20059;-55
2024/03/05 00:02:42;;;;;;;11.77;2.95;;;;;;;4.98;100.00;99178.75;4968003;28;20527;-57
2024/03/05 00:05:14;;;;;;;9.90;2.00;;;;;;;4.96;100.00;99175.56;4971981;28;20074;-54
2024/03/05 00:07:42;;;;;;;11.77;3.25;;;;;;;4.94;100.00;99172.38;4970827;28;20051;-56
2024/03/05 00:10:09;;;;;;;12.32;2.40;;;;;;;4.91;100.00;99171.13;4972673;28;20081;-57
2024/03/05 00:12:37;;;;;;;12.15;2.47;;;;;;;4.91;100.00;99164.84;4970182;28;20556;-54
2024/03/05 00:15:05;;;;;;;22.25;3.42;;;;;;;4.90;100.00;99165.97;4969035;28;20050;-56
2024/03/05 00:17:32;;;;;;;14.48;2.58;;;;;;;4.89;100.00;99164.41;4970591;28;20058;-55
2024/03/05 00:19:59;;;;;;;13.65;2.50;;;;;;;4.87;100.00;99166.69;4959071;28;20756;-59
2024/03/05 00:22:28;;;;;;;13.13;2.58;;;;;;;4.85;100.00;99174.44;4970552;28;20049;-57
2024/03/05 00:24:57;;;;;;;12.80;2.30;;;;;;;4.82;100.00;99175.94;4977015;28;20499;-55
2024/03/05 00:27:25;;;;;;;17.35;3.63;;;;;;;4.83;100.00;99182.22;4975577;28;20042;-57
2024/03/05 00:29:53;;;;;;;10.05;2.90;;;;;;;4.79;100.00;99175.84;4970471;28;20043;-58
2024/03/05 00:32:20;;;;;;;14.63;3.90;;;;;;;4.76;100.00;99171.84;4970138;28;20055;-55
2024/03/05 00:34:47;;;;;;;19.58;2.67;;;;;;;4.76;100.00;99179.28;4970690;28;20047;-57
2024/03/05 00:37:15;;;;;;;13.68;3.28;;;;;;;4.76;100.00;99171.06;4970454;28;20648;-57
2024/03/05 00:39:42;;;;;;;10.63;2.90;;;;;;;4.75;100.00;99181.22;4970247;28;20062;-56
2024/03/05 00:42:10;;;;;;;9.45;2.70;;;;;;;4.73;100.00;99182.69;4954198;28;20050;-56
2024/03/05 00:44:37;;;;;;;11.43;3.00;;;;;;;4.72;100.00;99195.59;4969602;28;20039;-58
2024/03/05 00:47:04;;;;;;;16.65;3.13;;;;;;;4.75;100.00;99191.38;4966729;28;20046;-57
2024/03/05 00:49:32;;;;;;;15.18;3.90;;;;;;;4.75;100.00;99197.66;4975456;28;20501;-57
2024/03/05 00:52:00;;;;;;;10.25;2.55;;;;;;;4.80;100.00;99204.84;4975568;28;20046;-58
2024/03/05 00:54:27;;;;;;;12.85;3.70;;;;;;;4.81;100.00;99195.50;4973273;28;20055;-54
2024/03/05 00:56:54;;;;;;;7.60;2.17;;;;;;;4.81;100.00;99198.22;4969965;28;20039;-56
2024/03/05 00:59:22;;;;;;;6.65;1.77;;;;;;;4.82;100.00;99191.59;4968993;28;20054;-55
2024/03/05 01:01:49;;;;;;;10.02;1.80;;;;;;;4.82;100.00;99194.31;4969520;28;20051;-56
2024/03/05 01:04:17;;;;;;;15.82;1.70;;;;;;;4.82;100.00;99197.06;4956477;28;20448;-57
2024/03/05 01:06:44;;;;;;;13.73;2.63;;;;;;;4.79;100.00;99201.31;4959663;28;20042;-55
2024/03/05 01:09:16;;;;;;;12.48;2.13;;;;;;;4.75;100.00;99196.84;4969697;28;20046;-57
2024/03/05 01:11:43;;;;;;;8.10;1.70;;;;;;;4.72;100.00;99197.53;4969329;28;20070;-54
2024/03/05 01:14:14;;;;;;;5.47;1.42;;;;;;;4.69;100.00;99200.97;4968675;28;20047;-57
2024/03/05 01:16:41;;;;;;;13.13;2.95;;;;;;;4.66;100.00;99204.41;4961769;28;20069;-57
2024/03/05 01:19:11;;;;;;;11.10;1.50;;;;;;;4.63;100.00;99199.63;4966817;28;20050;-56
2024/03/05 01:21:41;;;;;;;7.55;1.58;;;;;;;4.59;100.00;99201.44;4968553;28;20051;-57
2024/03/05 01:24:09;;;;;;;8.15;1.40;;;;;;;4.57;100.00;99206.47;4969225;28;20057;-58
2024/03/05 01:26:37;;;;;;;11.70;1.80;;;;;;;4.57;100.00;99214.69;4967107;28;20046;-57
2024/03/05 01:29:05;;;;;;;5.70;1.23;;;;;;;4.55;100.00;99219.72;4969026;28;20055;-56
2024/03/05 01:31:36;;;;;;;4.63;1.38;;;;;;;4.53;100.00;99231.00;4969132;28;20042;-56
2024/03/05 01:34:03;;;;;;;8.98;1.52;;;;;;;4.51;100.00;99221.53;4968512;28;20050;-57
2024/03/05 01:36:31;;;;;;;6.32;1.40;;;;;;;4.49;100.00;99221.06;4968913;28;20038;-54
2024/03/05 01:38:58;;;;;;;8.10;2.33;;;;;;;4.48;100.00;99216.72;4969148;28;20532;-55
2024/03/05 01:41:26;;;;;;;10.80;2.35;;;;;;;4.47;100.00;99217.88;4968547;28;20057;-56
2024/03/05 01:43:54;;;;;;;11.40;2.03;;;;;;;4.45;100.00;99220.94;4969275;28;20058;-56
2024/03/05 01:46:22;;;;;;;11.05;3.50;;;;;;;4.44;100.00;99215.81;4968979;28;20047;-56
2024/03/05 01:48:51;;;;;;;7.03;1.15;;;;;;;4.43;100.00;99222.44;4968183;28;20066;-56
2024/03/05 01:51:19;;;;;;;4.60;1.67;;;;;;;4.43;100.00;99220.50;4968815;28;20509;-54
2024/03/05 01:53:47;;;;;;;7.30;1.90;;;;;;;4.42;100.00;99220.84;4968572;28;20043;-56
2024/03/05 01:56:17;;;;;;;11.13;1.70;;;;;;;4.41;100.00;99225.53;4950402;28;20429;-57
2024/03/05 01:58:45;;;;;;;10.82;1.52;;;;;;;4.41;100.00;99224.72;4951798;28;20053;-53
2024/03/05 02:01:14;;;;;;;8.13;1.40;;;;;;;4.42;100.00;99229.06;4967640;28;20074;-57
2024/03/05 02:03:42;;;;;;;7.00;1.48;;;;;;;4.41;100.00;99244.72;4968669;28;20061;-58
2024/03/05 02:06:12;;;;;;;8.38;1.52;;;;;;;4.40;100.00;99232.13;4968412;28;20766;-55
2024/03/05 02:08:39;;;;;;;6.60;1.50;;;;;;;4.40;100.00;99250.50;4968381;28;20516;-56
2024/03/05 02:11:08;;;;;;;4.68;1.27;;;;;;;4.40;100.00;99234.88;4969720;28;20055;-55
2024/03/05 02:13:38;;;;;;;9.73;1.77;;;;;;;4.39;100.00;99238.78;4969413;28;20046;-57
2024/03/05 02:16:05;;;;;;;2.10;0.77;;;;;;;4.39;100.00;99243.44;4968567;28;20051;-55
2024/03/05 02:18:33;;;;;;;7.32;1.42;;;;;;;4.37;100.00;99241.03;4968279;28;20059;-55
2024/03/05 02:21:03;;;;;;;12.15;1.73;;;;;;;4.37;100.00;99240.25;4967675;28;20042;-59
2024/03/05 02:23:32;;;;;;;3.60;1.20;;;;;;;4.37;100.00;99237.53;4968322;28;22190;-57
2024/03/05 02:26:00;;;;;;;5.68;1.00;;;;;;;4.35;100.00;99237.03;4967845;28;20051;-56
2024/03/05 02:28:28;;;;;;;9.88;1.30;;;;;;;4.34;100.00;99228.03;4968230;28;20074;-57
2024/03/05 02:30:56;;;;;;;6.40;2.60;;;;;;;4.34;100.00;99235.47;4968801;28;20046;-56
2024/03/05 02:33:24;;;;;;;7.95;1.38;;;;;;;4.35;100.00;99237.84;4967831;28;21195;-56
2024/03/05 02:35:58;;;;;;;1.95;0.93;;;;;;;4.37;100.00;99232.03;4968537;28;20047;-56
2024/03/05 02:38:26;;;;;;;5.90;1.73;;;;;;;4.38;100.00;99230.88;4967329;28;20508;-55
2024/03/05 02:40:53;;;;;;;7.28;1.35;;;;;;;4.39;100.00;99244.25;4954595;28;20062;-55
2024/03/05 02:43:21;;;;;;;9.18;2.70;;;;;;;4.42;100.00;99248.25;4971687;28;20417;-55
2024/03/05 02:45:48;;;;;;;15.98;2.30;;;;;;;4.46;100.00;99254.63;4972264;28;20637;-57
2024/03/05 02:48:16;;;;;;;10.73;2.15;;;;;;;4.49;100.00;99262.19;4971256;28;20058;-55
2024/03/05 02:50:44;;;;;;;11.00;1.70;;;;;;;4.50;100.00;99258.31;4972092;28;20058;-56
2024/03/05 02:53:11;;;;;;;12.23;2.90;;;;;;;4.51;100.00;99277.16;4972385;28;20047;-56
2024/03/05 02:55:41;;;;;;;16.35;3.60;;;;;;;4.51;100.00;99262.63;4971999;28;20051;-54
2024/03/05 02:58:10;;;;;;;17.42;2.42;;;;;;;4.51;100.00;99276.34;4971599;28;20119;-56
2024/03/05 03:00:38;;;;;;;15.35;2.78;;;;;;;4.50;100.00;99267.31;5062683;22;20025;-56
2024/03/05 03:03:08;;;;;;;13.93;3.08;;;;;;;4.52;100.00;99281.50;4920239;29;20101;-55
2024/03/05 03:05:37;;;;;;;12.52;1.88;;;;;;;4.55;100.00;99282.75;4917783;29;20518;-55
2024/03/05 03:08:05;;;;;;;26.70;3.92;;;;;;;4.55;100.00;99280.00;4913081;29;20405;-57
2024/03/05 03:10:32;;;;;;;11.18;2.63;;;;;;;4.55;100.00;99280.00;4929648;29;20059;-56
2024/03/05 03:13:00;;;;;;;11.70;2.92;;;;;;;4.58;100.00;99279.34;4929499;29;20047;-54
2024/03/05 03:15:29;;;;;;;11.82;3.13;;;;;;;4.58;100.00;99284.81;4915804;29;20701;-59
2024/03/05 03:17:57;;;;;;;20.77;2.67;;;;;;;4.59;100.00;99292.69;4915245;29;20059;-55
2024/03/05 03:20:25;;;;;;;16.52;2.58;;;;;;;4.63;100.00;99303.78;4922611;29;20044;-57
2024/03/05 03:22:52;;;;;;;22.75;4.95;;;;;;;4.64;100.00;99311.66;4899111;29;20903;-57
2024/03/05 03:25:20;;;;;;;13.82;2.05;;;;;;;4.65;100.00;99313.25;4928926;29;20062;-53
2024/03/05 03:27:48;;;;;;;16.48;2.25;;;;;;;4.63;100.00;99309.25;4918972;29;20429;-57
2024/03/05 03:30:20;;;;;;;19.02;3.17;;;;;;;4.63;100.00;99312.78;4915751;29;20040;-56
2024/03/05 03:32:49;;;;;;;16.60;3.20;;;;;;;4.63;100.00;99309.25;4916269;29;20041;-56
2024/03/05 03:35:18;;;;;;;17.48;3.10;;;;;;;4.65;100.00;99312.44;4922472;29;20139;-56
2024/03/05 03:37:46;;;;;;;23.17;6.35;;;;;;;4.64;100.00;99316.31;4917281;29;20557;-59
2024/03/05 03:40:20;;;;;;;23.17;4.97;;;;;;;4.68;100.00;99330.97;4908178;29;20532;-54
2024/03/05 03:42:50;;;;;;;22.00;3.53;;;;;;;4.70;100.00;99320.44;4912357;29;20041;-57
2024/03/05 03:45:18;;;;;;;18.23;3.38;;;;;;;4.68;100.00;99326.28;4918728;29;20513;-57
2024/03/05 03:47:46;;;;;;;17.92;2.90;;;;;;;4.67;100.00;99316.44;4918824;29;20620;-58
2024/03/05 03:50:14;;;;;;;22.58;2.85;;;;;;;4.68;100.00;99340.00;4922887;29;20048;-56
2024/03/05 03:52:43;;;;;;;20.70;3.80;;;;;;;4.68;100.00;99337.25;4926818;29;20051;-56
2024/03/05 03:55:11;;;;;;;13.93;3.30;;;;;;;4.70;100.00;99348.66;4916416;29;20463;-57
2024/03/05 03:57:39;;;;;;;24.13;4.70;;;;;;;4.71;100.00;99333.81;4900159;29;20043;-56
2024/03/05 04:00:09;;;;;;;16.50;4.28;;;;;;;4.72;100.00;99331.88;4924084;29;20052;-55
2024/03/05 04:02:37;;;;;;;17.63;3.05;;;;;;;4.74;100.00;99326.84;4945538;28;20413;-57
2024/03/05 04:05:04;;;;;;;18.90;3.25;;;;;;;4.76;100.00;99332.81;4937398;29;20055;-54
2024/03/05 04:07:32;;;;;;;21.02;3.67;;;;;;;4.77;100.00;99331.66;4939102;29;20161;-55
2024/03/05 04:10:01;;;;;;;19.60;3.15;;;;;;;4.82;100.00;99334.16;4943341;29;20091;-56
2024/03/05 04:12:39;;;;;;;17.95;4.22;;;;;;;4.84;100.00;99346.38;4924218;29;20576;-54
2024/03/05 04:15:12;;;;;;;8.18;2.33;;;;;;;4.88;100.00;99360.22;4937242;29;20131;-57
2024/03/05 04:17:39;;;;;;;14.77;3.50;;;;;;;4.91;100.00;99359.53;4941930;29;20883;-55
2024/03/05 04:20:08;;;;;;;13.13;2.83;;;;;;;4.92;100.00;99350.19;4937600;29;20524;-57
2024/03/05 04:22:39;;;;;;;13.52;2.92;;;;;;;4.95;100.00;99354.19;4937397;29;20047;-56
2024/03/05 04:25:08;;;;;;;14.68;2.50;;;;;;;4.99;100.00;99347.66;4933172;29;20082;-55
2024/03/05 04:27:41;;;;;;;12.40;2.05;;;;;;;5.04;100.00;99368.56;4943283;29;20048;-56
2024/03/05 04:30:13;;;;;;;13.05;2.72;;;;;;;5.10;100.00;99364.47;4932743;29;20417;-56
2024/03/05 04:32:52;;;;;;;8.82;1.88;;;;;;;5.13;100.00;99372.81;4933601;29;20055;-53
2024/03/05 04:35:27;;;;;;;8.98;3.05;;;;;;;5.17;100.00;99361.94;4920371;29;20062;-56
2024/03/05 04:37:56;;;;;;;8.52;2.05;;;;;;;5.21;100.00;99384.84;4938443;29;20044;-57
2024/03/05 04:40:23;;;;;;;14.55;3.72;;;;;;;5.21;100.00;99374.66;4938610;29;20055;-55
2024/03/05 04:42:51;;;;;;;21.23;4.18;;;;;;;5.25;100.00;99381.06;4914152;29;20071;-57
2024/03/05 04:45:18;;;;;;;12.10;2.55;;;;;;;5.28;100.00;99383.13;4930974;29;20044;-57
2024/03/05 04:47:45;;;;;;;8.45;2.20;;;;;;;5.31;100.00;99376.94;4946138;29;20043;-55
2024/03/05 04:50:14;;;;;;;13.38;2.05;;;;;;;5.31;100.00;99393.41;4948108;29;20051;-55
2024/03/05 04:52:45;;;;;;;18.23;3.22;;;;;;;5.32;100.00;99407.94;4945361;29;20531;-54
2024/03/05 04:55:13;;;;;;;13.38;2.10;;;;;;;5.31;100.00;99418.09;4939041;29;20059;-55
2024/03/05 04:57:41;;;;;;;13.57;2.50;;;;;;;5.32;100.00;99419.69;4940268;29;20066;-55
2024/03/05 05:00:19;;;;;;;15.65;2.22;;;;;;;5.32;100.00;99425.19;4932452;29;20059;-56
2024/03/05 05:02:49;;;;;;;12.80;2.08;;;;;;;5.33;100.00;99426.78;4940671;28;20056;-56
2024/03/05 05:05:24;;;;;;;15.45;3.05;;;;;;;5.33;100.00;99431.47;4931772;29;20514;-54
2024/03/05 05:07:59;;;;;;;13.23;2.25;;;;;;;5.31;100.00;99431.81;4935789;29;20047;-57
2024/03/05 05:10:27;;;;;;;11.98;2.05;;;;;;;5.31;100.00;99444.75;4931542;29;20063;-57
2024/03/05 05:12:55;;;;;;;16.55;3.33;;;;;;;5.30;100.00;99441.19;4931343;29;20051;-56
2024/03/05 05:15:23;;;;;;;12.93;1.77;;;;;;;5.30;100.00;99449.41;4938138;29;20051;-58
2024/03/05 05:17:51;;;;;;;9.07;3.38;;;;;;;5.31;100.00;99455.72;4942119;29;20058;-55
2024/03/05 05:20:19;;;;;;;7.88;1.65;;;;;;;5.32;100.00;99440.88;4936494;29;20054;-57
2024/03/05 05:22:47;;;;;;;7.07;1.45;;;;;;;5.32;100.00;99452.63;4943477;29;20051;-57
2024/03/05 05:25:14;;;;;;;4.85;1.33;;;;;;;5.34;100.00;99449.53;4930443;29;20048;-57
2024/03/05 05:27:42;;;;;;;5.03;0.80;;;;;;;5.34;100.00;99450.34;4939996;29;20051;-55
2024/03/05 05:30:10;;;;;;;2.70;0.70;;;;;;;5.36;100.00;99456.28;4935495;29;20065;-56
2024/03/05 05:32:40;;;;;;;3.08;0.60;;;;;;;5.39;100.00;99463.84;4941947;29;20058;-57
2024/03/05 05:35:08;;;;;;;1.42;0.50;;;;;;;5.42;100.00;99463.16;4937013;29;20054;-58
2024/03/05 05:37:36;;;;;;;1.27;0.68;;;;;;;5.44;100.00;99460.88;4940606;29;20062;-55
2024/03/05 05:40:10;;;;;;;6.07;0.80;;;;;;;5.46;100.00;99469.56;4938028;29;20055;-55
2024/03/05 05:42:38;;;;;;;1.33;0.60;;;;;;;5.50;100.00;99473.25;4931752;29;20060;-57
2024/03/05 05:45:09;;;;;;;2.58;0.50;;;;;;;5.52;100.00;99462.72;4934234;29;20050;-56
2024/03/05 05:47:49;;;;;;;1.10;0.40;;;;;;;5.57;100.00;99477.34;4932628;29;20060;-56
2024/03/05 05:50:19;;;;;;;0.90;0.43;;;;;;;5.56;100.00;99478.50;4942351;28;20054;-56
2024/03/05 05:52:52;;;;;;;1.95;0.30;;;;;;;5.57;100.00;99478.16;4946413;29;20057;-55
2024/03/05 05:55:22;;;;;;;6.32;2.65;;;;;;;5.56;100.00;99473.00;4934007;29;20551;-56
2024/03/05 05:57:51;;;;;;;1.55;0.77;;;;;;;5.56;100.00;99484.75;4939983;29;20044;-56
2024/03/05 06:00:35;;;;;;;1.08;0.35;;;;;;;5.54;100.00;99485.13;4940600;29;20055;-57
2024/03/05 06:03:05;;;;;;;2.03;0.10;;;;;;;5.53;100.00;99486.25;4926909;29;20394;-57
2024/03/05 06:05:35;;;;;;;1.77;0.40;;;;;;;5.50;100.00;99497.94;4948194;29;20074;-56
2024/03/05 06:08:04;;;;;;;0.70;0.30;;;;;;;5.49;100.00;99490.03;4931669;29;20040;-57
2024/03/05 06:10:32;;;;;;;0.80;0.17;;;;;;;5.47;100.00;99493.13;4939686;29;20410;-59
2024/03/05 06:13:00;;;;;;;0.32;0.20;;;;;;;5.45;100.00;99505.59;4925254;29;20054;-56
2024/03/05 06:15:29;;;;;;;0.90;0.20;;;;;;;5.45;100.00;99505.59;4938757;29;20059;-56
2024/03/05 06:17:59;;;;;;;0.30;0.13;;;;;;;5.47;100.00;99497.81;4932705;29;20397;-57
2024/03/05 06:20:27;;;;;;;0.20;0.20;;;;;;;5.47;100.00;99493.13;4942872;29;20054;-55
2024/03/05 06:23:00;;;;;;;1.85;0.20;;;;;;;5.49;100.00;99514.75;4938771;29;20043;-57
2024/03/05 06:25:28;;;;;;;1.52;0.20;;;;;;;5.48;100.00;99522.16;4932544;29;20040;-56
2024/03/05 06:27:59;;;;;;;1.95;0.10;;;;;;;5.49;100.00;99507.31;4932512;29;20047;-57
2024/03/05 06:30:26;;;;;;;0.40;0.20;;;;;;;5.49;100.00;99539.44;4936406;29;20049;-57
2024/03/05 06:32:54;;;;;;;0.38;0.10;;;;;;;5.50;100.00;99541.88;4936319;29;20548;-58
2024/03/05 06:35:31;;;;;;;2.72;0.17;;;;;;;5.49;100.00;99553.97;4929898;29;20098;-58
2024/03/05 06:38:00;;;;;;;0.65;0.13;;;;;;;5.48;100.00;99543.34;4948020;29;20066;-57
2024/03/05 06:40:28;;;;;;;1.15;0.10;;;;;;;5.48;100.00;99562.56;4938248;29;20058;-55
2024/03/05 06:44:09;;;;;;;0.17;0.10;;;;;;;5.46;100.00;99576.59;4932980;29;20051;-54
2024/03/05 06:45:52;;;;;;;2.08;0.10;;;;;;;5.45;100.00;99585.19;4919279;29;20044;-55
2024/03/05 06:48:22;;;;;;;0.32;0.10;;;;;;;5.43;100.00;99596.50;4923881;29;20047;-56
2024/03/05 06:50:58;;;;;;;0.73;0.22;;;;;;;5.43;100.00;99615.72;4931783;29;20066;-53
2024/03/05 06:58:59;;;;;;;0.35;0.10;;;;;;;5.40;100.00;99635.59;4937229;29;20441;-56
2024/03/05 07:01:27;;;;;;;0.60;0.20;;;;;;;5.41;100.00;99642.69;4940640;29;20082;-54
2024/03/05 07:03:55;;;;;;;0.82;0.25;;;;;;;5.39;100.00;99655.97;4927176;29;20051;-56
2024/03/05 07:06:23;;;;;;;1.73;0.35;;;;;;;5.40;100.00;99671.28;4935033;29;20053;-57
2024/03/05 07:08:54;;;;;;;0.65;0.05;;;;;;;5.38;100.00;99670.00;4934774;29;20630;-55
2024/03/05 07:11:22;;;;;;;0.55;0.10;;;;;;;5.37;100.00;99674.72;4932127;29;20052;-57
2024/03/05 07:13:51;;;;;;;1.23;0.20;;;;;;;5.37;100.00;99691.19;4936210;29;20055;-57
2024/03/05 07:16:19;;;;;;;0.52;0.32;;;;;;;5.35;100.00;99693.44;4937507;29;20066;-56
2024/03/05 07:18:49;;;;;;;0.32;0.10;;;;;;;5.34;100.00;99686.38;4934931;29;20058;-52
2024/03/05 07:21:19;;;;;;;1.15;0.30;;;;;;;5.34;100.00;99702.81;4938152;29;20063;-57
2024/03/05 07:23:50;;;;;;;1.33;0.20;;;;;;;5.35;100.00;99722.81;4937935;29;20409;-56
2024/03/05 07:26:18;;;;;;;1.00;0.00;;;;;;;5.33;100.00;99720.41;4935178;28;20409;-56
2024/03/05 07:28:47;;;;;;;0.90;0.10;;;;;;;5.34;100.00;99716.56;4922124;29;20648;-55
2024/03/05 07:31:15;;;;;;;1.85;0.20;;;;;;;5.33;100.00;99734.16;4934536;29;20047;-56
2024/03/05 07:33:44;;;;;;;1.55;0.57;;;;;;;5.33;100.00;99723.16;4938518;29;20635;-54
2024/03/05 07:36:17;;;;;;;3.03;0.20;;;;;;;5.33;100.00;99750.63;4934846;29;20056;-55
2024/03/05 07:38:45;;;;;;;1.25;0.20;;;;;;;5.32;100.00;99757.22;4939503;29;20066;-56
2024/03/05 07:41:13;;;;;;;1.80;0.20;;;;;;;5.32;100.00;99778.41;4945635;29;20063;-55
2024/03/05 07:43:55;;;;;;;0.00;0.00;;;;;;;5.30;100.00;99778.72;4930330;29;20043;-57
2024/03/05 07:46:23;;;;;;;0.52;0.20;;;;;;;5.29;100.00;99768.91;4951718;29;20047;-57
2024/03/05 07:48:50;;;;;;;0.45;0.10;;;;;;;5.29;100.00;99809.25;4950236;29;20063;-57
2024/03/05 07:51:18;;;;;;;2.05;0.10;;;;;;;5.25;100.00;99784.41;4950337;29;20047;-55
2024/03/05 07:53:56;;;;;;;1.63;0.20;;;;;;;5.25;100.00;99783.59;4941546;29;20040;-55
2024/03/05 07:56:23;;;;;;;0.00;0.00;;;;;;;5.25;100.00;99797.31;4949552;29;20218;-57
2024/03/05 07:58:50;;;;;;;0.57;0.10;;;;;;;5.23;100.00;99800.41;4951344;29;20039;-57
2024/03/05 08:01:18;;;;;;;2.10;0.20;;;;;;;5.23;100.00;99805.09;4950540;29;20070;-56
2024/03/05 08:03:45;;;;;;;0.57;0.20;;;;;;;5.24;100.00;99821.19;4948657;29;20055;-56
2024/03/05 08:06:13;;;;;;;0.47;0.20;;;;;;;5.24;100.00;99812.97;4933189;29;20048;-57
2024/03/05 08:08:40;;;;;;;0.80;0.15;;;;;;;5.24;100.00;99837.66;4934826;29;20058;-56
2024/03/05 08:11:08;;;;;;;0.90;0.20;;;;;;;5.25;100.00;99842.03;4940693;29;20054;-57
2024/03/05 08:13:35;;;;;;;1.75;0.28;;;;;;;5.25;100.00;99853.00;4934146;29;20036;-55
2024/03/05 08:16:04;;;;;;;1.42;0.30;;;;;;;5.26;100.00;99846.41;4943105;29;20051;-56
2024/03/05 08:18:32;;;;;;;0.65;0.22;;;;;;;5.27;100.00;99855.44;4939893;29;20688;-55
2024/03/05 08:21:01;;;;;;;0.10;0.10;;;;;;;5.27;100.00;99861.72;4938733;29;20079;-56
2024/03/05 08:23:29;;;;;;;2.03;0.47;;;;;;;5.29;100.00;99875.13;4933986;29;20422;-55
2024/03/05 08:25:56;;;;;;;0.88;0.47;;;;;;;5.28;100.00;99877.06;4935157;29;20413;-57
2024/03/05 08:28:24;;;;;;;0.85;0.52;;;;;;;5.30;100.00;99883.00;4937063;29;20078;-54
2024/03/05 08:30:53;;;;;;;3.30;0.57;;;;;;;5.32;100.00;99886.22;4932519;29;20046;-57
2024/03/05 08:33:23;;;;;;;2.38;0.32;;;;;;;5.34;100.00;99892.19;4932400;29;20055;-57
2024/03/05 08:35:51;;;;;;;3.05;0.38;;;;;;;5.35;100.00;99904.75;4914712;29;20518;-56
2024/03/05 08:38:19;;;;;;;1.20;0.60;;;;;;;5.37;100.00;99910.75;4944008;29;20059;-57
2024/03/05 08:40:48;;;;;;;1.10;0.70;;;;;;;5.40;100.00;99915.56;4921509;29;20047;-54
2024/03/05 08:43:16;;;;;;;1.10;0.20;;;;;;;5.45;100.00;99925.56;4940447;29;20535;-57
2024/03/05 08:45:43;;;;;;;1.80;0.38;;;;;;;5.48;100.00;99927.66;4933324;29;20044;-55
2024/03/05 08:48:11;;;;;;;4.13;0.70;;;;;;;5.51;100.00;99933.25;4934806;29;20059;-56
2024/03/05 08:50:39;;;;;;;2.30;0.63;;;;;;;5.54;100.00;99942.78;4941268;29;20035;-58
2024/03/05 08:53:09;;;;;;;3.55;0.68;;;;;;;5.59;100.00;99939.06;4940928;29;20095;-56
2024/03/05 08:55:37;;;;;;;6.15;0.50;;;;;;;5.61;100.00;99953.25;4933090;29;20055;-57
2024/03/05 08:58:04;;;;;;;4.82;0.82;;;;;;;5.61;100.00;99945.00;4934139;29;20048;-49
2024/03/05 09:00:33;;;;;;;6.93;1.60;;;;;;;5.63;100.00;99956.47;4937844;29;20063;-55
2024/03/05 09:03:11;;;;;;;3.35;0.73;;;;;;;5.65;100.00;99965.97;4932447;29;20074;-52
2024/03/05 09:05:40;;;;;;;3.47;0.80;;;;;;;5.66;100.00;99969.53;4937694;29;20047;-56
2024/03/05 09:08:12;;;;;;;9.73;1.15;;;;;;;5.67;100.00;99969.19;4933165;29;20052;-52
2024/03/05 09:10:40;;;;;;;6.30;1.10;;;;;;;5.71;100.00;99969.34;4945848;29;20059;-57
2024/03/05 09:13:08;;;;;;;3.35;1.00;;;;;;;5.74;100.00;99990.66;4932091;29;20522;-51
2024/03/05 09:15:36;;;;;;;13.02;2.90;;;;;;;5.76;100.00;99989.19;4933074;29;20051;-52
2024/03/05 09:18:12;;;;;;;7.13;1.17;;;;;;;5.80;100.00;99989.34;4930829;29;20058;-54
2024/03/05 09:20:41;;;;;;;13.38;1.52;;;;;;;5.82;100.00;99998.03;4936112;29;20497;-51
2024/03/05 09:23:09;;;;;;;12.18;2.47;;;;;;;5.86;100.00;100004.50;4935357;29;20056;-56
2024/03/05 09:25:41;;;;;;;7.07;0.80;;;;;;;5.89;100.00;99998.34;4933806;29;20046;-54
2024/03/05 09:28:09;;;;;;;5.60;1.08;;;;;;;5.93;100.00;100024.03;4933683;29;20584;-52
2024/03/05 09:30:37;;;;;;;8.45;1.63;;;;;;;5.97;100.00;100024.97;4920490;29;20757;-53
2024/03/05 09:33:09;;;;;;;11.20;1.95;;;;;;;6.00;100.00;100029.81;4932619;29;20430;-55
2024/03/05 09:35:39;;;;;;;7.43;1.77;;;;;;;6.04;100.00;100033.47;4937415;29;20043;-56
2024/03/05 09:38:07;;;;;;;17.52;2.97;;;;;;;6.07;100.00;100052.06;4930897;29;20060;-58
2024/03/05 09:40:35;;;;;;;9.00;2.80;;;;;;;6.11;100.00;100051.09;4936159;29;20056;-54
2024/03/05 09:43:04;;;;;;;14.35;3.78;;;;;;;6.15;100.00;100062.19;4941780;29;20050;-56
2024/03/05 09:45:36;;;;;;;10.27;3.25;;;;;;;6.15;100.00;100070.44;4941065;29;20051;-54
2024/03/05 09:48:06;;;;;;;10.35;2.22;;;;;;;6.16;100.00;100069.31;4933453;29;20052;-55
2024/03/05 09:50:35;;;;;;;12.95;3.38;;;;;;;6.15;100.00;100067.69;4934431;29;20059;-57
2024/03/05 09:53:03;;;;;;;12.15;2.60;;;;;;;6.17;100.00;100081.13;4940631;29;20044;-54
2024/03/05 09:55:32;;;;;;;12.57;2.60;;;;;;;6.19;100.00;100082.41;4934028;29;20062;-50
2024/03/05 09:58:06;;;;;;;15.13;3.50;;;;;;;6.21;100.00;100082.06;4949307;29;20043;-55
2024/03/05 10:00:37;;;;;;;14.55;3.28;;;;;;;6.22;100.00;100087.22;4935962;29;20063;-54
2024/03/05 10:03:08;;;;;;;15.50;2.90;;;;;;;6.25;100.00;100094.78;4901419;29;20043;-51
2024/03/05 10:05:40;;;;;;;16.73;3.58;;;;;;;6.28;100.00;100107.06;4894945;29;20422;-54
2024/03/05 10:08:11;;;;;;;15.13;3.03;;;;;;;6.31;100.00;100098.16;4906984;29;20051;-56
2024/03/05 10:10:38;;;;;;;21.45;2.78;;;;;;;6.32;100.00;100111.59;4920251;29;20054;-55
2024/03/05 10:13:06;;;;;;;14.75;3.92;;;;;;;6.33;100.00;100124.19;4914338;29;20048;-54
2024/03/05 10:15:37;;;;;;;15.70;3.13;;;;;;;6.33;100.00;100132.41;4913473;29;20074;-55
2024/03/05 10:18:06;;;;;;;11.73;2.45;;;;;;;6.33;100.00;100135.16;4912086;29;20045;-54
2024/03/05 10:20:36;;;;;;;17.33;3.53;;;;;;;6.34;100.00;100131.28;4917106;29;20048;-55
2024/03/05 10:23:06;;;;;;;19.35;3.40;;;;;;;6.35;100.00;100143.91;4911516;29;20052;-52
2024/03/05 10:25:34;;;;;;;17.98;2.58;;;;;;;6.36;100.00;100153.75;4912300;29;20044;-53
2024/03/05 10:28:03;;;;;;;14.55;3.08;;;;;;;6.38;100.00;100156.97;4910957;29;20052;-57
2024/03/05 10:30:33;;;;;;;14.82;3.90;;;;;;;6.40;100.00;100162.97;4909086;29;20571;-56
2024/03/05 10:33:04;;;;;;;16.55;4.03;;;;;;;6.41;100.00;100170.06;4912566;29;20052;-53
2024/03/05 10:35:33;;;;;;;20.27;3.30;;;;;;;6.44;100.00;100185.91;4915316;29;20058;-50
2024/03/05 10:38:09;;;;;;;19.95;2.88;;;;;;;6.48;100.00;100188.81;4895776;29;20044;-53
2024/03/05 10:40:39;;;;;;;13.50;2.70;;;;;;;6.50;100.00;100186.53;4917198;29;20055;-52
2024/03/05 10:43:08;;;;;;;14.85;2.28;;;;;;;6.54;100.00;100202.03;4923581;29;20063;-54
2024/03/05 10:45:41;;;;;;;16.52;3.85;;;;;;;6.58;100.00;100210.41;4919139;29;20052;-55
2024/03/05 10:48:12;;;;;;;16.38;3.50;;;;;;;6.61;100.00;100196.81;4911944;29;20060;-56
2024/03/05 10:50:41;;;;;;;25.10;4.65;;;;;;;6.65;100.00;100208.75;4910641;29;20051;-58
2024/03/05 10:53:08;;;;;;;13.82;2.63;;;;;;;6.71;100.00;100212.94;4913887;29;20048;-56
2024/03/05 10:55:38;;;;;;;24.60;5.57;;;;;;;6.77;100.00;100210.00;4919965;29;20044;-54
2024/03/05 11:00:43;;;;;;;19.27;2.97;;;;;;;6.84;100.00;100232.28;4913729;28;20072;-53
2024/03/05 11:03:14;;;;;;;16.73;3.45;;;;;;;6.86;100.00;100224.53;4939338;29;20046;-55
2024/03/05 11:05:52;;;;;;;11.55;3.15;;;;;;;6.91;100.00;100229.81;4935960;29;20035;-54
2024/03/05 11:08:24;;;;;;;20.15;3.33;;;;;;;6.94;100.00;100237.38;4942637;29;20059;-55
2024/03/05 11:11:07;;;;;;;25.42;5.05;;;;;;;6.96;100.00;100230.44;4936497;29;20046;-53
2024/03/05 11:13:39;;;;;;;;;;;;;;;6.96;100.00;100233.19;4934944;29;20514;-54
2024/03/05 11:16:08;;;;;;;10.50;2.85;;;;;;;7.01;100.00;100265.22;4931349;29;19922;-51
2024/03/05 11:18:37;;;;;;;14.50;3.00;;;;;;;7.05;100.00;100263.41;4934008;29;20055;-53
2024/03/05 11:21:13;;;;;;;18.83;3.35;;;;;;;7.07;100.00;100269.38;4937193;29;20051;-52
2024/03/05 11:23:50;;;;;;;19.42;3.97;;;;;;;7.11;100.00;100275.81;4934727;29;20048;-55
2024/03/05 11:26:18;;;;;;;19.63;3.65;;;;;;;7.15;100.00;100282.25;4926450;29;20063;-55
2024/03/05 11:28:51;;;;;;;21.17;3.75;;;;;;;7.18;100.00;100284.34;4932515;29;20095;-55
2024/03/05 11:31:19;;;;;;;17.45;3.05;;;;;;;7.21;100.00;100292.75;4930702;29;20688;-53
2024/03/05 11:34:05;;;;;;;11.27;3.10;;;;;;;7.24;100.00;100283.03;4936165;29;20402;-54
2024/03/05 11:36:33;;;;;;;17.80;5.13;;;;;;;7.26;100.00;100309.09;4940495;29;20047;-55
2024/03/05 11:39:19;;;;;;;14.88;3.67;;;;;;;7.28;100.00;100308.78;4946374;29;20043;-53
2024/03/05 11:41:47;;;;;;;25.20;5.57;;;;;;;7.31;100.00;100308.06;4934784;29;20044;-56
2024/03/05 11:44:35;;;;;;;15.05;3.83;;;;;;;7.34;100.00;100310.16;4944742;29;20062;-55